Terminal Aerodrome Forecast
Issued by NWS

Current Version | Previous Version | Text Only | Print | Product List | Glossary Off
Versions: 1 2 3 4 5 6 7 8 9 10 11 12 13 14 15 16 17 18 19 20 21 22 23 24 25 26 27 28 29 30 31 32 33 34 35 36

000
FTUS44 KOHX 060408 AAA
TAFCKV
TAF AMD
KCKV 060408Z 0604/0624 19004KT P6SM BKN040
      TEMPO 0604/0607 4SM BR
     FM060700 00000KT 4SM BR SKC
      TEMPO 0610/0613 1SM BR BKN003
     FM061400 21003KT P6SM SCT180
     FM061800 23006KT P6SM SCT050 BKN180=

USA.gov is the U.S. government's official web portal to all federal, state and local government web resources and services.